sensor_id;sensor_type;location;lat;lon;timestamp;temperature;humidity
10903;DHT22;5504;47.312;11.060;2023-04-24T00:00:16;12.40;89.40
10903;DHT22;5504;47.312;11.060;2023-04-24T00:02:43;12.40;89.40
10903;DHT22;5504;47.312;11.060;2023-04-24T00:05:14;12.30;89.70
10903;DHT22;5504;47.312;11.060;2023-04-24T00:07:41;12.30;89.80
10903;DHT22;5504;47.312;11.060;2023-04-24T00:10:07;11.90;90.40
10903;DHT22;5504;47.312;11.060;2023-04-24T00:12:33;11.90;90.80
10903;DHT22;5504;47.312;11.060;2023-04-24T00:14:59;12.00;91.00
10903;DHT22;5504;47.312;11.060;2023-04-24T00:17:25;11.80;90.00
10903;DHT22;5504;47.312;11.060;2023-04-24T00:19:51;11.90;90.30
10903;DHT22;5504;47.312;11.060;2023-04-24T00:22:27;11.90;90.50
10903;DHT22;5504;47.312;11.060;2023-04-24T00:24:53;11.50;90.30
10903;DHT22;5504;47.312;11.060;2023-04-24T00:27:19;11.70;90.80
10903;DHT22;5504;47.312;11.060;2023-04-24T00:29:45;11.80;91.20
10903;DHT22;5504;47.312;11.060;2023-04-24T00:32:11;12.10;90.90
10903;DHT22;5504;47.312;11.060;2023-04-24T00:34:36;12.10;91.10
10903;DHT22;5504;47.312;11.060;2023-04-24T00:37:02;12.00;91.30
10903;DHT22;5504;47.312;11.060;2023-04-24T00:39:28;11.90;91.60
10903;DHT22;5504;47.312;11.060;2023-04-24T00:41:54;11.90;91.90
10903;DHT22;5504;47.312;11.060;2023-04-24T00:44:20;11.90;92.00
10903;DHT22;5504;47.312;11.060;2023-04-24T00:46:46;11.70;91.80
10903;DHT22;5504;47.312;11.060;2023-04-24T00:49:18;11.70;92.00
10903;DHT22;5504;47.312;11.060;2023-04-24T00:51:44;11.60;92.00
10903;DHT22;5504;47.312;11.060;2023-04-24T00:54:11;11.70;92.30
10903;DHT22;5504;47.312;11.060;2023-04-24T00:56:37;11.80;92.40
10903;DHT22;5504;47.312;11.060;2023-04-24T00:59:03;11.80;92.20
10903;DHT22;5504;47.312;11.060;2023-04-24T01:01:29;11.70;92.20
10903;DHT22;5504;47.312;11.060;2023-04-24T01:03:56;11.70;92.50
10903;DHT22;5504;47.312;11.060;2023-04-24T01:06:23;12.00;92.40
10903;DHT22;5504;47.312;11.060;2023-04-24T01:08:52;11.90;92.10
10903;DHT22;5504;47.312;11.060;2023-04-24T01:11:19;11.90;92.40
10903;DHT22;5504;47.312;11.060;2023-04-24T01:13:46;11.90;92.60
10903;DHT22;5504;47.312;11.060;2023-04-24T01:16:13;11.80;92.60
10903;DHT22;5504;47.312;11.060;2023-04-24T01:18:38;11.90;92.20
10903;DHT22;5504;47.312;11.060;2023-04-24T01:21:04;12.00;91.80
10903;DHT22;5504;47.312;11.060;2023-04-24T01:23:31;12.00;91.70
10903;DHT22;5504;47.312;11.060;2023-04-24T01:25:56;11.80;92.10
10903;DHT22;5504;47.312;11.060;2023-04-24T01:28:22;11.70;92.40
10903;DHT22;5504;47.312;11.060;2023-04-24T01:30:48;11.60;92.30
10903;DHT22;5504;47.312;11.060;2023-04-24T01:33:15;11.60;92.60
10903;DHT22;5504;47.312;11.060;2023-04-24T01:35:41;11.60;92.90
10903;DHT22;5504;47.312;11.060;2023-04-24T01:38:06;11.50;92.80
10903;DHT22;5504;47.312;11.060;2023-04-24T01:40:32;11.40;92.30
10903;DHT22;5504;47.312;11.060;2023-04-24T01:42:58;11.40;92.20
10903;DHT22;5504;47.312;11.060;2023-04-24T01:45:25;11.30;92.40
10903;DHT22;5504;47.312;11.060;2023-04-24T01:47:50;11.20;92.50
10903;DHT22;5504;47.312;11.060;2023-04-24T01:50:17;11.10;92.60
10903;DHT22;5504;47.312;11.060;2023-04-24T01:52:43;10.90;92.70
10903;DHT22;5504;47.312;11.060;2023-04-24T01:55:09;11.00;93.20
10903;DHT22;5504;47.312;11.060;2023-04-24T01:57:35;10.90;93.10
10903;DHT22;5504;47.312;11.060;2023-04-24T02:00:02;11.00;92.80
10903;DHT22;5504;47.312;11.060;2023-04-24T02:02:30;10.90;92.60
10903;DHT22;5504;47.312;11.060;2023-04-24T02:04:56;10.90;92.40
10903;DHT22;5504;47.312;11.060;2023-04-24T02:07:22;10.90;92.80
10903;DHT22;5504;47.312;11.060;2023-04-24T02:09:48;10.90;92.60
10903;DHT22;5504;47.312;11.060;2023-04-24T02:12:14;10.80;92.70
10903;DHT22;5504;47.312;11.060;2023-04-24T02:14:40;10.90;93.10
10903;DHT22;5504;47.312;11.060;2023-04-24T02:17:07;10.90;93.40
10903;DHT22;5504;47.312;11.060;2023-04-24T02:19:33;10.90;93.40
10903;DHT22;5504;47.312;11.060;2023-04-24T02:21:59;11.00;93.40
10903;DHT22;5504;47.312;11.060;2023-04-24T02:24:25;11.00;93.00
10903;DHT22;5504;47.312;11.060;2023-04-24T02:26:50;11.10;92.80
10903;DHT22;5504;47.312;11.060;2023-04-24T02:29:16;11.10;93.10
10903;DHT22;5504;47.312;11.060;2023-04-24T02:31:42;11.20;92.90
10903;DHT22;5504;47.312;11.060;2023-04-24T02:34:07;11.10;92.80
10903;DHT22;5504;47.312;11.060;2023-04-24T02:36:33;11.00;92.60
10903;DHT22;5504;47.312;11.060;2023-04-24T02:38:59;11.10;92.50
10903;DHT22;5504;47.312;11.060;2023-04-24T02:41:26;11.10;92.30
10903;DHT22;5504;47.312;11.060;2023-04-24T02:43:57;11.00;92.40
10903;DHT22;5504;47.312;11.060;2023-04-24T02:46:23;11.00;92.70
10903;DHT22;5504;47.312;11.060;2023-04-24T02:48:49;10.80;92.60
10903;DHT22;5504;47.312;11.060;2023-04-24T02:51:14;10.80;92.70
10903;DHT22;5504;47.312;11.060;2023-04-24T02:53:40;10.70;92.70
10903;DHT22;5504;47.312;11.060;2023-04-24T02:56:06;10.70;93.10
10903;DHT22;5504;47.312;11.060;2023-04-24T02:58:31;10.70;93.40
10903;DHT22;5504;47.312;11.060;2023-04-24T03:00:57;10.80;93.50
10903;DHT22;5504;47.312;11.060;2023-04-24T03:03:23;10.80;93.60
10903;DHT22;5504;47.312;11.060;2023-04-24T03:05:49;10.80;93.40
10903;DHT22;5504;47.312;11.060;2023-04-24T03:08:15;10.80;93.50
10903;DHT22;5504;47.312;11.060;2023-04-24T03:10:41;10.80;93.50
10903;DHT22;5504;47.312;11.060;2023-04-24T03:13:07;10.70;93.50
10903;DHT22;5504;47.312;11.060;2023-04-24T03:15:32;10.80;93.80
10903;DHT22;5504;47.312;11.060;2023-04-24T03:17:58;10.80;93.90
10903;DHT22;5504;47.312;11.060;2023-04-24T03:20:24;10.80;93.90
10903;DHT22;5504;47.312;11.060;2023-04-24T03:22:49;10.80;93.70
10903;DHT22;5504;47.312;11.060;2023-04-24T03:25:15;10.90;93.50
10903;DHT22;5504;47.312;11.060;2023-04-24T03:27:41;10.90;93.70
10903;DHT22;5504;47.312;11.060;2023-04-24T03:30:07;10.90;93.50
10903;DHT22;5504;47.312;11.060;2023-04-24T03:32:33;10.90;93.70
10903;DHT22;5504;47.312;11.060;2023-04-24T03:35:01;10.80;94.00
10903;DHT22;5504;47.312;11.060;2023-04-24T03:37:26;10.90;93.80
10903;DHT22;5504;47.312;11.060;2023-04-24T03:39:52;10.90;93.60
10903;DHT22;5504;47.312;11.060;2023-04-24T03:42:18;10.90;93.40
10903;DHT22;5504;47.312;11.060;2023-04-24T03:44:44;10.90;93.30
10903;DHT22;5504;47.312;11.060;2023-04-24T03:47:09;10.80;93.40
10903;DHT22;5504;47.312;11.060;2023-04-24T03:49:35;10.70;93.60
10903;DHT22;5504;47.312;11.060;2023-04-24T03:52:01;10.80;93.90
10903;DHT22;5504;47.312;11.060;2023-04-24T03:54:26;10.80;93.90
10903;DHT22;5504;47.312;11.060;2023-04-24T03:56:52;10.80;93.90
10903;DHT22;5504;47.312;11.060;2023-04-24T03:59:18;10.80;94.10
10903;DHT22;5504;47.312;11.060;2023-04-24T04:01:44;10.80;94.00
10903;DHT22;5504;47.312;11.060;2023-04-24T04:04:10;10.80;94.00
10903;DHT22;5504;47.312;11.060;2023-04-24T04:06:36;10.80;93.70
10903;DHT22;5504;47.312;11.060;2023-04-24T04:09:02;10.80;93.80
10903;DHT22;5504;47.312;11.060;2023-04-24T04:11:28;10.70;93.70
10903;DHT22;5504;47.312;11.060;2023-04-24T04:13:54;10.70;93.90
10903;DHT22;5504;47.312;11.060;2023-04-24T04:16:20;10.80;94.10
10903;DHT22;5504;47.312;11.060;2023-04-24T04:18:46;10.80;94.00
10903;DHT22;5504;47.312;11.060;2023-04-24T04:21:12;10.80;93.80
10903;DHT22;5504;47.312;11.060;2023-04-24T04:23:38;10.90;93.70
10903;DHT22;5504;47.312;11.060;2023-04-24T04:26:03;10.90;93.50
10903;DHT22;5504;47.312;11.060;2023-04-24T04:28:29;10.70;93.40
10903;DHT22;5504;47.312;11.060;2023-04-24T04:30:58;10.80;93.80
10903;DHT22;5504;47.312;11.060;2023-04-24T04:33:24;10.60;93.80
10903;DHT22;5504;47.312;11.060;2023-04-24T04:35:51;10.70;93.90
10903;DHT22;5504;47.312;11.060;2023-04-24T04:38:18;10.70;94.10
10903;DHT22;5504;47.312;11.060;2023-04-24T04:40:45;10.70;94.10
10903;DHT22;5504;47.312;11.060;2023-04-24T04:43:11;10.70;94.00
10903;DHT22;5504;47.312;11.060;2023-04-24T04:45:37;10.70;94.10
10903;DHT22;5504;47.312;11.060;2023-04-24T04:48:04;10.70;94.30
10903;DHT22;5504;47.312;11.060;2023-04-24T04:50:32;10.70;94.30
10903;DHT22;5504;47.312;11.060;2023-04-24T04:52:58;10.80;94.20
10903;DHT22;5504;47.312;11.060;2023-04-24T04:55:24;10.80;94.00
10903;DHT22;5504;47.312;11.060;2023-04-24T04:57:50;10.70;93.90
10903;DHT22;5504;47.312;11.060;2023-04-24T05:00:16;10.70;93.90
10903;DHT22;5504;47.312;11.060;2023-04-24T05:02:42;10.80;93.90
10903;DHT22;5504;47.312;11.060;2023-04-24T05:05:08;10.80;93.90
10903;DHT22;5504;47.312;11.060;2023-04-24T05:07:34;10.70;93.70
10903;DHT22;5504;47.312;11.060;2023-04-24T05:10:00;10.70;93.70
10903;DHT22;5504;47.312;11.060;2023-04-24T05:12:26;10.70;94.00
10903;DHT22;5504;47.312;11.060;2023-04-24T05:14:52;10.70;94.00
10903;DHT22;5504;47.312;11.060;2023-04-24T05:17:18;10.70;94.00
10903;DHT22;5504;47.312;11.060;2023-04-24T05:19:44;10.60;93.90
10903;DHT22;5504;47.312;11.060;2023-04-24T05:22:10;10.60;93.90
10903;DHT22;5504;47.312;11.060;2023-04-24T05:24:37;10.70;94.50
10903;DHT22;5504;47.312;11.060;2023-04-24T05:27:02;10.60;94.00
10903;DHT22;5504;47.312;11.060;2023-04-24T05:29:30;10.50;93.90
10903;DHT22;5504;47.312;11.060;2023-04-24T05:31:59;10.50;93.70
10903;DHT22;5504;47.312;11.060;2023-04-24T05:34:25;10.50;93.90
10903;DHT22;5504;47.312;11.060;2023-04-24T05:36:51;10.50;93.90
10903;DHT22;5504;47.312;11.060;2023-04-24T05:39:17;10.60;93.70
10903;DHT22;5504;47.312;11.060;2023-04-24T05:41:43;10.60;93.60
10903;DHT22;5504;47.312;11.060;2023-04-24T05:44:09;10.80;93.70
10903;DHT22;5504;47.312;11.060;2023-04-24T05:46:35;10.80;93.60
10903;DHT22;5504;47.312;11.060;2023-04-24T05:49:01;10.80;93.60
10903;DHT22;5504;47.312;11.060;2023-04-24T05:51:27;10.60;93.30
10903;DHT22;5504;47.312;11.060;2023-04-24T05:53:53;10.70;93.60
10903;DHT22;5504;47.312;11.060;2023-04-24T05:56:19;10.60;94.20
10903;DHT22;5504;47.312;11.060;2023-04-24T05:58:46;10.70;94.10
10903;DHT22;5504;47.312;11.060;2023-04-24T06:01:12;10.70;94.20
10903;DHT22;5504;47.312;11.060;2023-04-24T06:03:40;10.80;94.10
10903;DHT22;5504;47.312;11.060;2023-04-24T06:06:06;10.80;94.00
10903;DHT22;5504;47.312;11.060;2023-04-24T06:08:32;10.90;94.00
10903;DHT22;5504;47.312;11.060;2023-04-24T06:10:58;10.90;94.00
10903;DHT22;5504;47.312;11.060;2023-04-24T06:13:24;10.80;93.90
10903;DHT22;5504;47.312;11.060;2023-04-24T06:15:50;10.80;94.40
10903;DHT22;5504;47.312;11.060;2023-04-24T06:18:16;10.80;94.50
10903;DHT22;5504;47.312;11.060;2023-04-24T06:20:42;10.90;94.40
10903;DHT22;5504;47.312;11.060;2023-04-24T06:23:07;10.90;94.20
10903;DHT22;5504;47.312;11.060;2023-04-24T06:25:33;11.00;94.10
10903;DHT22;5504;47.312;11.060;2023-04-24T06:27:59;11.10;94.20
10903;DHT22;5504;47.312;11.060;2023-04-24T06:30:25;11.10;94.20
10903;DHT22;5504;47.312;11.060;2023-04-24T06:32:51;11.20;93.90
10903;DHT22;5504;47.312;11.060;2023-04-24T06:35:16;11.30;93.40
10903;DHT22;5504;47.312;11.060;2023-04-24T06:37:42;11.50;92.70
10903;DHT22;5504;47.312;11.060;2023-04-24T06:40:09;11.80;92.00
10903;DHT22;5504;47.312;11.060;2023-04-24T06:42:35;11.70;91.10
10903;DHT22;5504;47.312;11.060;2023-04-24T06:45:02;11.70;91.00
10903;DHT22;5504;47.312;11.060;2023-04-24T06:47:29;11.80;91.10
10903;DHT22;5504;47.312;11.060;2023-04-24T06:49:54;11.90;91.10
10903;DHT22;5504;47.312;11.060;2023-04-24T06:52:20;11.80;91.40
10903;DHT22;5504;47.312;11.060;2023-04-24T06:54:46;11.90;91.90
10903;DHT22;5504;47.312;11.060;2023-04-24T06:57:12;11.70;91.40
10903;DHT22;5504;47.312;11.060;2023-04-24T06:59:37;11.70;91.90
10903;DHT22;5504;47.312;11.060;2023-04-24T07:02:03;11.70;92.20
10903;DHT22;5504;47.312;11.060;2023-04-24T07:04:30;11.80;92.10
10903;DHT22;5504;47.312;11.060;2023-04-24T07:06:56;11.90;92.20
10903;DHT22;5504;47.312;11.060;2023-04-24T07:09:24;12.00;92.00
10903;DHT22;5504;47.312;11.060;2023-04-24T07:11:51;12.10;92.20
10903;DHT22;5504;47.312;11.060;2023-04-24T07:14:17;12.10;91.90
10903;DHT22;5504;47.312;11.060;2023-04-24T07:16:43;12.10;91.40
10903;DHT22;5504;47.312;11.060;2023-04-24T07:19:09;12.00;90.80
10903;DHT22;5504;47.312;11.060;2023-04-24T07:21:35;12.10;91.40
10903;DHT22;5504;47.312;11.060;2023-04-24T07:24:00;12.30;91.70
10903;DHT22;5504;47.312;11.060;2023-04-24T07:26:29;12.50;91.60
10903;DHT22;5504;47.312;11.060;2023-04-24T07:28:55;12.70;90.70
10903;DHT22;5504;47.312;11.060;2023-04-24T07:31:21;12.90;90.20
10903;DHT22;5504;47.312;11.060;2023-04-24T07:33:47;12.90;88.20
10903;DHT22;5504;47.312;11.060;2023-04-24T07:36:13;13.00;88.50
10903;DHT22;5504;47.312;11.060;2023-04-24T07:38:42;12.70;87.60
10903;DHT22;5504;47.312;11.060;2023-04-24T07:41:08;12.90;87.80
10903;DHT22;5504;47.312;11.060;2023-04-24T07:43:34;13.00;88.80
10903;DHT22;5504;47.312;11.060;2023-04-24T07:46:00;12.70;86.30
10903;DHT22;5504;47.312;11.060;2023-04-24T07:48:26;13.10;88.90
10903;DHT22;5504;47.312;11.060;2023-04-24T07:50:53;13.40;87.80
10903;DHT22;5504;47.312;11.060;2023-04-24T07:53:19;13.10;86.00
10903;DHT22;5504;47.312;11.060;2023-04-24T07:55:44;12.80;87.30
10903;DHT22;5504;47.312;11.060;2023-04-24T07:58:10;12.90;86.90
10903;DHT22;5504;47.312;11.060;2023-04-24T08:00:36;13.20;88.00
10903;DHT22;5504;47.312;11.060;2023-04-24T08:03:02;13.20;85.40
10903;DHT22;5504;47.312;11.060;2023-04-24T08:05:27;13.60;85.60
10903;DHT22;5504;47.312;11.060;2023-04-24T08:07:54;13.80;84.60
10903;DHT22;5504;47.312;11.060;2023-04-24T08:10:23;14.00;85.90
10903;DHT22;5504;47.312;11.060;2023-04-24T08:12:49;14.30;83.90
10903;DHT22;5504;47.312;11.060;2023-04-24T08:15:15;14.00;79.90
10903;DHT22;5504;47.312;11.060;2023-04-24T08:17:40;13.50;81.50
10903;DHT22;5504;47.312;11.060;2023-04-24T08:20:07;13.00;83.30
10903;DHT22;5504;47.312;11.060;2023-04-24T08:22:39;12.70;84.50
10903;DHT22;5504;47.312;11.060;2023-04-24T08:25:05;12.30;86.30
10903;DHT22;5504;47.312;11.060;2023-04-24T08:27:31;12.70;87.30
10903;DHT22;5504;47.312;11.060;2023-04-24T08:29:57;12.80;86.30
10903;DHT22;5504;47.312;11.060;2023-04-24T08:32:24;13.10;85.90
10903;DHT22;5504;47.312;11.060;2023-04-24T08:34:50;13.20;84.80
10903;DHT22;5504;47.312;11.060;2023-04-24T08:37:18;13.60;85.40
10903;DHT22;5504;47.312;11.060;2023-04-24T08:39:43;13.60;81.60
10903;DHT22;5504;47.312;11.060;2023-04-24T08:42:11;13.90;82.90
10903;DHT22;5504;47.312;11.060;2023-04-24T08:44:38;14.20;83.10
10903;DHT22;5504;47.312;11.060;2023-04-24T08:47:04;14.40;82.30
10903;DHT22;5504;47.312;11.060;2023-04-24T08:49:31;14.50;79.60
10903;DHT22;5504;47.312;11.060;2023-04-24T08:51:57;14.50;79.10
10903;DHT22;5504;47.312;11.060;2023-04-24T08:54:25;14.60;81.00
10903;DHT22;5504;47.312;11.060;2023-04-24T08:56:51;14.70;81.00
10903;DHT22;5504;47.312;11.060;2023-04-24T08:59:19;14.90;81.50
10903;DHT22;5504;47.312;11.060;2023-04-24T09:01:45;15.00;80.10
10903;DHT22;5504;47.312;11.060;2023-04-24T09:04:12;15.10;78.50
10903;DHT22;5504;47.312;11.060;2023-04-24T09:06:40;15.10;78.60
10903;DHT22;5504;47.312;11.060;2023-04-24T09:09:07;15.20;78.40
10903;DHT22;5504;47.312;11.060;2023-04-24T09:11:33;15.30;76.50
10903;DHT22;5504;47.312;11.060;2023-04-24T09:14:00;14.90;76.70
10903;DHT22;5504;47.312;11.060;2023-04-24T09:16:26;14.10;78.90
10903;DHT22;5504;47.312;11.060;2023-04-24T09:18:52;13.90;82.30
10903;DHT22;5504;47.312;11.060;2023-04-24T09:21:20;14.40;83.10
10903;DHT22;5504;47.312;11.060;2023-04-24T09:23:46;14.80;79.90
10903;DHT22;5504;47.312;11.060;2023-04-24T09:26:12;15.20;80.10
10903;DHT22;5504;47.312;11.060;2023-04-24T09:28:40;15.00;75.10
10903;DHT22;5504;47.312;11.060;2023-04-24T09:31:14;15.60;79.30
10903;DHT22;5504;47.312;11.060;2023-04-24T09:34:05;16.10;77.70
10903;DHT22;5504;47.312;11.060;2023-04-24T09:36:38;16.10;75.40
10903;DHT22;5504;47.312;11.060;2023-04-24T09:39:09;15.30;73.60
10903;DHT22;5504;47.312;11.060;2023-04-24T09:41:50;15.00;76.20
10903;DHT22;5504;47.312;11.060;2023-04-24T09:44:18;15.00;76.50
10903;DHT22;5504;47.312;11.060;2023-04-24T09:46:51;15.30;78.90
10903;DHT22;5504;47.312;11.060;2023-04-24T09:49:25;15.40;75.30
10903;DHT22;5504;47.312;11.060;2023-04-24T09:51:51;14.60;74.40
10903;DHT22;5504;47.312;11.060;2023-04-24T09:54:20;14.80;78.30
10903;DHT22;5504;47.312;11.060;2023-04-24T09:56:48;15.40;77.40
10903;DHT22;5504;47.312;11.060;2023-04-24T09:59:17;16.20;76.30
10903;DHT22;5504;47.312;11.060;2023-04-24T10:01:43;16.70;74.60
10903;DHT22;5504;47.312;11.060;2023-04-24T10:04:21;17.00;69.30
10903;DHT22;5504;47.312;11.060;2023-04-24T10:06:50;15.90;69.40
10903;DHT22;5504;47.312;11.060;2023-04-24T10:09:20;15.70;71.60
10903;DHT22;5504;47.312;11.060;2023-04-24T10:11:49;15.80;71.20
10903;DHT22;5504;47.312;11.060;2023-04-24T10:14:20;16.50;72.80
10903;DHT22;5504;47.312;11.060;2023-04-24T10:16:46;16.80;69.80
10903;DHT22;5504;47.312;11.060;2023-04-24T10:19:16;16.70;67.20
10903;DHT22;5504;47.312;11.060;2023-04-24T10:21:43;16.70;72.00
10903;DHT22;5504;47.312;11.060;2023-04-24T10:24:18;17.50;70.90
10903;DHT22;5504;47.312;11.060;2023-04-24T10:26:46;17.70;68.40
10903;DHT22;5504;47.312;11.060;2023-04-24T10:29:16;18.20;67.10
10903;DHT22;5504;47.312;11.060;2023-04-24T10:31:42;17.90;66.40
10903;DHT22;5504;47.312;11.060;2023-04-24T10:34:11;18.30;64.80
10903;DHT22;5504;47.312;11.060;2023-04-24T10:36:40;18.70;65.80
10903;DHT22;5504;47.312;11.060;2023-04-24T10:39:11;18.80;64.70
10903;DHT22;5504;47.312;11.060;2023-04-24T10:41:38;18.90;64.70
10903;DHT22;5504;47.312;11.060;2023-04-24T10:44:05;18.90;64.40
10903;DHT22;5504;47.312;11.060;2023-04-24T10:46:31;18.90;66.10
10903;DHT22;5504;47.312;11.060;2023-04-24T10:48:57;18.10;64.90
10903;DHT22;5504;47.312;11.060;2023-04-24T10:51:25;17.80;66.20
10903;DHT22;5504;47.312;11.060;2023-04-24T10:54:27;17.50;67.50
10903;DHT22;5504;47.312;11.060;2023-04-24T10:57:25;17.20;67.80
10903;DHT22;5504;47.312;11.060;2023-04-24T10:59:40;16.90;68.20
10903;DHT22;5504;47.312;11.060;2023-04-24T11:02:08;15.90;70.60
10903;DHT22;5504;47.312;11.060;2023-04-24T11:04:33;16.00;72.50
10903;DHT22;5504;47.312;11.060;2023-04-24T11:07:01;15.90;74.90
10903;DHT22;5504;47.312;11.060;2023-04-24T11:09:30;16.00;72.00
10903;DHT22;5504;47.312;11.060;2023-04-24T11:12:07;15.80;68.70
10903;DHT22;5504;47.312;11.060;2023-04-24T11:17:36;16.20;69.30
10903;DHT22;5504;47.312;11.060;2023-04-24T11:20:10;16.70;69.40
10903;DHT22;5504;47.312;11.060;2023-04-24T11:22:39;17.20;66.40
10903;DHT22;5504;47.312;11.060;2023-04-24T11:25:09;17.50;63.50
10903;DHT22;5504;47.312;11.060;2023-04-24T11:27:44;17.50;63.60
10903;DHT22;5504;47.312;11.060;2023-04-24T11:30:11;17.30;63.70
10903;DHT22;5504;47.312;11.060;2023-04-24T11:37:48;18.20;62.00
10903;DHT22;5504;47.312;11.060;2023-04-24T11:40:15;18.50;59.50
10903;DHT22;5504;47.312;11.060;2023-04-24T11:42:48;18.20;59.90
10903;DHT22;5504;47.312;11.060;2023-04-24T11:45:28;17.80;57.90
10903;DHT22;5504;47.312;11.060;2023-04-24T11:47:55;18.10;57.70
10903;DHT22;5504;47.312;11.060;2023-04-24T11:50:25;18.20;57.20
10903;DHT22;5504;47.312;11.060;2023-04-24T11:52:52;18.40;56.70
10903;DHT22;5504;47.312;11.060;2023-04-24T11:57:46;18.60;54.20
10903;DHT22;5504;47.312;11.060;2023-04-24T12:00:23;19.00;54.30
10903;DHT22;5504;47.312;11.060;2023-04-24T12:02:49;19.20;53.80
10903;DHT22;5504;47.312;11.060;2023-04-24T12:05:28;18.90;53.30
10903;DHT22;5504;47.312;11.060;2023-04-24T12:07:56;18.80;53.40
10903;DHT22;5504;47.312;11.060;2023-04-24T12:10:27;18.30;55.00
10903;DHT22;5504;47.312;11.060;2023-04-24T12:12:54;18.20;55.10
10903;DHT22;5504;47.312;11.060;2023-04-24T12:15:21;18.00;54.20
10903;DHT22;5504;47.312;11.060;2023-04-24T12:17:47;17.80;52.80
10903;DHT22;5504;47.312;11.060;2023-04-24T12:20:14;17.50;53.20
10903;DHT22;5504;47.312;11.060;2023-04-24T12:22:54;17.20;53.40
10903;DHT22;5504;47.312;11.060;2023-04-24T12:25:21;17.10;54.80
10903;DHT22;5504;47.312;11.060;2023-04-24T12:27:54;17.20;55.40
10903;DHT22;5504;47.312;11.060;2023-04-24T12:30:21;17.40;55.10
10903;DHT22;5504;47.312;11.060;2023-04-24T12:32:49;17.40;53.10
10903;DHT22;5504;47.312;11.060;2023-04-24T12:35:27;17.70;55.10
10903;DHT22;5504;47.312;11.060;2023-04-24T12:37:53;17.80;53.90
10903;DHT22;5504;47.312;11.060;2023-04-24T12:40:20;18.00;53.90
10903;DHT22;5504;47.312;11.060;2023-04-24T12:42:51;18.20;55.20
10903;DHT22;5504;47.312;11.060;2023-04-24T12:45:18;18.00;54.40
10903;DHT22;5504;47.312;11.060;2023-04-24T12:47:45;17.80;52.40
10903;DHT22;5504;47.312;11.060;2023-04-24T12:50:14;17.80;53.70
10903;DHT22;5504;47.312;11.060;2023-04-24T12:52:40;18.40;53.70
10903;DHT22;5504;47.312;11.060;2023-04-24T12:55:06;18.20;52.30
10903;DHT22;5504;47.312;11.060;2023-04-24T12:57:36;19.10;54.20
10903;DHT22;5504;47.312;11.060;2023-04-24T13:00:03;19.80;51.70
10903;DHT22;5504;47.312;11.060;2023-04-24T13:02:30;19.80;50.60
10903;DHT22;5504;47.312;11.060;2023-04-24T13:05:00;20.00;48.70
10903;DHT22;5504;47.312;11.060;2023-04-24T13:07:26;19.40;48.20
10903;DHT22;5504;47.312;11.060;2023-04-24T13:09:54;18.70;44.90
10903;DHT22;5504;47.312;11.060;2023-04-24T13:12:20;19.00;46.10
10903;DHT22;5504;47.312;11.060;2023-04-24T13:14:46;19.40;48.80
10903;DHT22;5504;47.312;11.060;2023-04-24T13:17:12;19.10;48.40
10903;DHT22;5504;47.312;11.060;2023-04-24T13:19:40;19.10;48.20
10903;DHT22;5504;47.312;11.060;2023-04-24T13:22:06;18.90;46.10
10903;DHT22;5504;47.312;11.060;2023-04-24T13:24:32;19.00;48.10
10903;DHT22;5504;47.312;11.060;2023-04-24T13:26:58;18.80;48.70
10903;DHT22;5504;47.312;11.060;2023-04-24T13:29:24;18.50;47.70
10903;DHT22;5504;47.312;11.060;2023-04-24T13:31:51;16.60;46.10
10903;DHT22;5504;47.312;11.060;2023-04-24T13:34:17;16.80;48.80
10903;DHT22;5504;47.312;11.060;2023-04-24T13:36:43;16.80;48.30
10903;DHT22;5504;47.312;11.060;2023-04-24T13:39:09;16.70;50.20
10903;DHT22;5504;47.312;11.060;2023-04-24T13:41:36;16.90;50.50
10903;DHT22;5504;47.312;11.060;2023-04-24T13:44:02;16.90;49.00
10903;DHT22;5504;47.312;11.060;2023-04-24T13:46:28;16.80;48.80
10903;DHT22;5504;47.312;11.060;2023-04-24T13:48:54;15.90;47.40
10903;DHT22;5504;47.312;11.060;2023-04-24T13:51:19;16.10;51.70
10903;DHT22;5504;47.312;11.060;2023-04-24T13:53:45;16.20;50.20
10903;DHT22;5504;47.312;11.060;2023-04-24T13:56:11;16.10;50.70
10903;DHT22;5504;47.312;11.060;2023-04-24T13:58:38;15.40;48.50
10903;DHT22;5504;47.312;11.060;2023-04-24T14:01:04;15.70;52.40
10903;DHT22;5504;47.312;11.060;2023-04-24T14:03:30;15.80;51.40
10903;DHT22;5504;47.312;11.060;2023-04-24T14:05:56;15.70;51.20
10903;DHT22;5504;47.312;11.060;2023-04-24T14:08:22;16.10;51.60
10903;DHT22;5504;47.312;11.060;2023-04-24T14:10:47;16.30;49.90
10903;DHT22;5504;47.312;11.060;2023-04-24T14:13:13;16.80;50.70
10903;DHT22;5504;47.312;11.060;2023-04-24T14:15:39;16.90;50.40
10903;DHT22;5504;47.312;11.060;2023-04-24T14:18:04;17.60;52.60
10903;DHT22;5504;47.312;11.060;2023-04-24T14:20:30;18.30;49.40
10903;DHT22;5504;47.312;11.060;2023-04-24T14:22:56;18.10;45.50
10903;DHT22;5504;47.312;11.060;2023-04-24T14:25:24;18.30;46.50
10903;DHT22;5504;47.312;11.060;2023-04-24T14:27:50;18.70;48.90
10903;DHT22;5504;47.312;11.060;2023-04-24T14:30:17;19.00;46.60
10903;DHT22;5504;47.312;11.060;2023-04-24T14:32:42;18.80;46.10
10903;DHT22;5504;47.312;11.060;2023-04-24T14:35:08;18.60;45.10
10903;DHT22;5504;47.312;11.060;2023-04-24T14:37:34;18.70;47.20
10903;DHT22;5504;47.312;11.060;2023-04-24T14:40:01;19.00;45.00
10903;DHT22;5504;47.312;11.060;2023-04-24T14:42:27;18.60;44.20
10903;DHT22;5504;47.312;11.060;2023-04-24T14:44:54;18.10;45.00
10903;DHT22;5504;47.312;11.060;2023-04-24T14:47:20;18.40;47.50
10903;DHT22;5504;47.312;11.060;2023-04-24T14:49:49;18.40;45.70
10903;DHT22;5504;47.312;11.060;2023-04-24T14:52:15;17.70;45.70
10903;DHT22;5504;47.312;11.060;2023-04-24T14:54:41;17.00;45.10
10903;DHT22;5504;47.312;11.060;2023-04-24T14:57:07;17.20;47.30
10903;DHT22;5504;47.312;11.060;2023-04-24T14:59:33;17.30;48.00
10903;DHT22;5504;47.312;11.060;2023-04-24T15:01:59;17.00;45.80
10903;DHT22;5504;47.312;11.060;2023-04-24T15:04:25;16.50;46.60
10903;DHT22;5504;47.312;11.060;2023-04-24T15:06:54;15.70;47.50
10903;DHT22;5504;47.312;11.060;2023-04-24T15:09:21;15.70;49.80
10903;DHT22;5504;47.312;11.060;2023-04-24T15:11:47;15.10;52.30
10903;DHT22;5504;47.312;11.060;2023-04-24T15:14:13;14.60;52.50
10903;DHT22;5504;47.312;11.060;2023-04-24T15:16:38;14.40;51.30
10903;DHT22;5504;47.312;11.060;2023-04-24T15:19:04;14.50;51.60
10903;DHT22;5504;47.312;11.060;2023-04-24T15:21:30;14.40;51.80
10903;DHT22;5504;47.312;11.060;2023-04-24T15:23:56;14.20;52.20
10903;DHT22;5504;47.312;11.060;2023-04-24T15:26:23;14.10;52.00
10903;DHT22;5504;47.312;11.060;2023-04-24T15:28:49;14.50;52.20
10903;DHT22;5504;47.312;11.060;2023-04-24T15:31:17;15.00;53.70
10903;DHT22;5504;47.312;11.060;2023-04-24T15:33:43;15.10;52.40
10903;DHT22;5504;47.312;11.060;2023-04-24T15:36:09;15.00;52.40
10903;DHT22;5504;47.312;11.060;2023-04-24T15:38:35;15.00;53.80